Aérodrome :
LOGIN :

S'inscrire | Disclaimer

   EN    FR    IT 

 










Légende :    VFR   VFR Marginal   IFR   IFR Intensif   IFR Très Intensif
Visi : 
Plafond : 
>= 8 km
>= 3000ft
5 à 8 km
1000 à 3000 ft
1500m à 5 km
500 à 1000 ft
800 à 1500m
200 à 500 ft
< 800m
< 200 ft
Symboles :   Orages  Brouillard  Fortes neiges  Fortes précipitations  Vent > 20 kt
SIGMETs :   Divers  Orages  Givrage  Turbulence  Onde Orograph.  Cendres Volcan.







- Altitude de l'aérodrome : 1306 ft
- Code IATA : ACH


LSZR - Alten Rhein

DERNIER METAR :
  • 250920Z 28004KT 250V340 9999 FEW025 BKN060 16/12 Q1022 NOSIG RMK F

METARs EXPIRÉS :
  • 250850Z VRB02KT 9999 FEW016 BKN040 15/11 Q1022 NOSIG RMK E
  • 250820Z VRB02KT 9999 FEW016 BKN040 15/11 Q1022 NOSIG RMK E
  • 250750Z 04004KT 350V080 9999 FEW012 OVC027 15/12 Q1022 NOSIG RMK D
  • 250720Z 04004KT 350V080 9999 -DZ FEW012 OVC027 14/12 Q1022 NOSIG RMK D
  • 250650Z 04007KT 9999 OVC027 15/11 Q1022 REDZ NOSIG RMK C

TAF TAF LSZR
Valide du 25 à 09h jusqu'au 25 à 18h UTC


250825Z 2509/2518 04004KT 9999 FEW012 OVC027
BECMG 2515/2518 CAVOK
ATIS : +41 71 858 51 66
Pas de NOTAMs connus pour ce terrain.



MET'MAP, la Météo Aéronautique d'un coup d'oeil ! - Copyright ORBIFLY Décembre 2007 - Disclaimer

ORBIFLY MET'MAP TEAM :

Programmation & Développement : Alexandra Zaïnal
Conception & Développement : Baudouin d'Aumeries
Co-Programmation & Développement : Marc-Olivier Méhu
Soutien technique & logistique : Manuel Goepfert

Contact : metmap@orbifly.com




SOURCES & CREDITS :

   NOAA